createdAt,value
2024-02-03T00:00:17.723Z,17.23
2024-02-03T00:01:17.778Z,16.07
2024-02-03T00:02:17.783Z,12.75
2024-02-03T00:03:17.839Z,13.76
2024-02-03T00:04:17.856Z,16.00
2024-02-03T00:05:17.917Z,16.17
2024-02-03T00:06:17.940Z,14.89
2024-02-03T00:07:17.915Z,14.75
2024-02-03T00:08:17.890Z,13.34
2024-02-03T00:09:17.984Z,13.69
2024-02-03T00:10:17.925Z,11.55
2024-02-03T00:11:17.970Z,12.49
2024-02-03T00:12:18.053Z,13.09
2024-02-03T00:13:18.038Z,11.31
2024-02-03T00:14:18.135Z,11.25
2024-02-03T00:15:18.371Z,13.13
2024-02-03T00:16:18.179Z,12.63
2024-02-03T00:17:18.246Z,11.75
2024-02-03T00:18:18.433Z,13.86
2024-02-03T00:19:18.435Z,13.12
2024-02-03T00:20:18.376Z,12.51
2024-02-03T00:21:18.389Z,13.18
2024-02-03T00:22:18.435Z,13.96
2024-02-03T00:23:18.563Z,14.96
2024-02-03T00:24:18.581Z,15.92
2024-02-03T00:25:18.543Z,14.96
2024-02-03T00:26:18.520Z,12.91
2024-02-03T00:27:18.613Z,14.05
2024-02-03T00:28:18.521Z,13.74
2024-02-03T00:29:18.632Z,12.60
2024-02-03T00:30:18.615Z,10.95
2024-02-03T00:31:18.612Z,9.96
2024-02-03T00:32:18.648Z,10.48
2024-02-03T00:33:18.882Z,11.79
2024-02-03T00:34:18.729Z,11.96
2024-02-03T00:35:18.750Z,11.55
2024-02-03T00:36:18.772Z,11.81
2024-02-03T00:37:18.789Z,12.22
2024-02-03T00:38:18.879Z,13.68
2024-02-03T00:39:18.875Z,12.24
2024-02-03T00:40:18.957Z,10.64
2024-02-03T00:41:18.875Z,12.16
2024-02-03T00:42:18.901Z,11.73
2024-02-03T00:43:18.974Z,11.46
2024-02-03T00:44:19.022Z,11.04
2024-02-03T00:45:19.065Z,12.23
2024-02-03T00:46:19.063Z,12.04
2024-02-03T00:47:19.204Z,11.62
2024-02-03T00:48:19.334Z,11.60
2024-02-03T00:49:19.419Z,12.59
2024-02-03T00:50:19.275Z,13.85
2024-02-03T00:51:19.355Z,13.25
2024-02-03T00:52:19.409Z,13.55
2024-02-03T00:53:19.494Z,12.93
2024-02-03T00:54:19.499Z,13.12
2024-02-03T00:55:19.477Z,13.97
2024-02-03T00:56:19.680Z,11.14
2024-02-03T00:57:19.639Z,11.59
2024-02-03T00:58:19.597Z,11.99
2024-02-03T00:59:19.606Z,12.53
2024-02-03T01:00:19.704Z,13.32
2024-02-03T01:01:19.788Z,12.46
2024-02-03T01:02:19.704Z,11.54
2024-02-03T01:03:19.896Z,12.14
2024-02-03T01:04:19.869Z,11.14
2024-02-03T01:05:19.816Z,11.85
2024-02-03T01:06:19.907Z,13.56
2024-02-03T01:07:19.913Z,14.60
2024-02-03T01:08:19.907Z,13.04
2024-02-03T01:09:22.010Z,12.26
2024-02-03T01:10:19.975Z,13.22
2024-02-03T01:11:19.946Z,13.57
2024-02-03T01:12:20.155Z,12.91
2024-02-03T01:13:20.011Z,14.47
2024-02-03T01:14:19.995Z,12.08
2024-02-03T01:15:20.046Z,11.82
2024-02-03T01:16:20.062Z,12.21
2024-02-03T01:17:20.060Z,13.02
2024-02-03T01:18:20.413Z,13.09
2024-02-03T01:19:20.686Z,12.12
2024-02-03T01:20:20.177Z,12.44
2024-02-03T01:21:20.318Z,12.15
2024-02-03T01:22:20.289Z,12.14
2024-02-03T01:23:20.301Z,12.32
2024-02-03T01:24:20.515Z,12.42
2024-02-03T01:25:20.500Z,12.14
2024-02-03T01:26:20.552Z,11.68
2024-02-03T01:27:20.734Z,12.63
2024-02-03T01:28:20.584Z,12.54
2024-02-03T01:29:20.711Z,11.94
2024-02-03T01:30:20.665Z,11.59
2024-02-03T01:31:20.682Z,10.17
2024-02-03T01:32:20.769Z,11.73
2024-02-03T01:33:20.860Z,11.82
2024-02-03T01:34:20.902Z,10.56
2024-02-03T01:35:20.861Z,11.77
2024-02-03T01:36:20.913Z,11.50
2024-02-03T01:37:20.927Z,11.04
2024-02-03T01:38:20.936Z,11.01
2024-02-03T01:39:21.094Z,10.57
2024-02-03T01:40:21.045Z,10.41
2024-02-03T01:41:21.111Z,10.06
2024-02-03T01:42:21.153Z,11.19
2024-02-03T01:43:21.211Z,10.54
2024-02-03T01:44:21.269Z,10.69
2024-02-03T01:45:21.288Z,10.25
2024-02-03T01:46:21.291Z,10.29
2024-02-03T01:47:21.369Z,10.38
2024-02-03T01:48:21.429Z,10.96
2024-02-03T01:49:21.550Z,9.82
2024-02-03T01:50:21.478Z,10.89
2024-02-03T01:51:21.614Z,11.37
2024-02-03T01:52:21.577Z,9.76
2024-02-03T01:53:21.615Z,10.13
2024-02-03T01:54:21.753Z,10.49
2024-02-03T01:55:21.705Z,10.69
2024-02-03T01:56:21.756Z,10.38
2024-02-03T01:57:21.821Z,9.85
2024-02-03T01:58:21.848Z,10.58
2024-02-03T01:59:21.863Z,10.69
2024-02-03T02:00:22.017Z,9.21
2024-02-03T02:01:22.032Z,9.95
2024-02-03T02:02:21.921Z,11.10
2024-02-03T02:03:22.165Z,10.60
2024-02-03T02:04:22.211Z,10.06
2024-02-03T02:05:22.137Z,10.16
2024-02-03T02:06:22.324Z,9.50
2024-02-03T02:07:22.307Z,8.89
2024-02-03T02:08:22.285Z,9.12
2024-02-03T02:09:22.417Z,9.83
2024-02-03T02:10:22.441Z,7.52
2024-02-03T02:11:22.555Z,7.90
2024-02-03T02:12:22.528Z,8.26
2024-02-03T02:13:22.657Z,7.37
2024-02-03T02:14:22.613Z,8.08
2024-02-03T02:15:22.696Z,7.89
2024-02-03T02:16:22.735Z,8.63
2024-02-03T02:17:22.809Z,8.45
2024-02-03T02:18:22.996Z,8.07
2024-02-03T02:19:23.020Z,8.67
2024-02-03T02:20:22.953Z,8.54
2024-02-03T02:21:23.081Z,9.14
2024-02-03T02:22:22.998Z,8.82
2024-02-03T02:23:23.029Z,8.13
2024-02-03T02:24:23.077Z,9.61
2024-02-03T02:25:23.073Z,8.96
2024-02-03T02:26:23.100Z,9.37
2024-02-03T02:27:23.134Z,8.69
2024-02-03T02:28:23.145Z,9.00
2024-02-03T02:29:23.215Z,9.10
2024-02-03T02:30:23.306Z,9.17
2024-02-03T02:31:23.295Z,9.76
2024-02-03T02:32:23.357Z,9.71
2024-02-03T02:33:23.599Z,11.09
2024-02-03T02:34:23.458Z,10.30
2024-02-03T02:35:23.447Z,9.49
2024-02-03T02:36:23.501Z,11.19
2024-02-03T02:37:23.528Z,10.68
2024-02-03T02:38:23.538Z,10.21
2024-02-03T02:39:23.623Z,9.50
2024-02-03T02:40:23.636Z,11.14
2024-02-03T02:41:23.737Z,10.30
2024-02-03T02:42:23.830Z,9.28
2024-02-03T02:43:23.884Z,8.88
2024-02-03T02:44:23.906Z,8.33
2024-02-03T02:45:23.933Z,7.85
2024-02-03T02:46:23.885Z,8.07
2024-02-03T02:47:24.012Z,8.49
2024-02-03T02:48:24.083Z,8.29
2024-02-03T02:49:24.175Z,8.80
2024-02-03T02:50:24.041Z,8.86
2024-02-03T02:51:24.057Z,9.32
2024-02-03T02:52:24.052Z,8.87
2024-02-03T02:53:24.145Z,8.51
2024-02-03T02:54:24.142Z,9.06
2024-02-03T02:55:24.241Z,8.27
2024-02-03T02:56:24.241Z,7.04
2024-02-03T02:57:24.332Z,8.01
2024-02-03T02:58:24.346Z,7.20
2024-02-03T02:59:24.381Z,7.59
2024-02-03T03:00:24.356Z,8.02
2024-02-03T03:01:24.461Z,8.75
2024-02-03T03:02:24.373Z,9.29
2024-02-03T03:03:24.457Z,8.77
2024-02-03T03:04:24.465Z,8.86
2024-02-03T03:05:24.417Z,8.91
2024-02-03T03:06:24.429Z,9.02
2024-02-03T03:07:24.505Z,7.42
2024-02-03T03:08:24.473Z,8.40
2024-02-03T03:09:24.538Z,8.41
2024-02-03T03:10:24.613Z,7.01
2024-02-03T03:11:24.556Z,7.84
2024-02-03T03:12:24.647Z,8.61
2024-02-03T03:13:24.603Z,8.16
2024-02-03T03:14:24.633Z,8.27
2024-02-03T03:15:24.660Z,7.77
2024-02-03T03:16:24.669Z,6.39
2024-02-03T03:17:24.648Z,7.04
2024-02-03T03:18:24.747Z,6.98
2024-02-03T03:19:24.801Z,7.71
2024-02-03T03:20:24.721Z,7.02
2024-02-03T03:21:24.855Z,7.17
2024-02-03T03:22:24.789Z,7.44
2024-02-03T03:23:24.844Z,6.66
2024-02-03T03:24:24.935Z,7.03
2024-02-03T03:25:24.936Z,7.29
2024-02-03T03:26:24.931Z,6.52
2024-02-03T03:27:25.030Z,6.58
2024-02-03T03:28:25.033Z,6.60
2024-02-03T03:29:25.075Z,4.91
2024-02-03T03:30:25.170Z,5.58
2024-02-03T03:31:25.166Z,4.42
2024-02-03T03:32:25.279Z,4.61
2024-02-03T03:33:25.405Z,5.27
2024-02-03T03:34:25.405Z,4.31
2024-02-03T03:35:25.318Z,4.98
2024-02-03T03:36:25.478Z,5.52
2024-02-03T03:37:25.368Z,5.76
2024-02-03T03:38:25.372Z,5.29
2024-02-03T03:39:25.465Z,5.55
2024-02-03T03:40:25.490Z,5.60
2024-02-03T03:41:25.577Z,4.60
2024-02-03T03:42:25.655Z,5.65
2024-02-03T03:43:25.697Z,4.57
2024-02-03T03:44:25.758Z,5.42
2024-02-03T03:45:25.793Z,5.38
2024-02-03T03:46:25.789Z,5.27
2024-02-03T03:47:25.913Z,5.37
2024-02-03T03:48:25.977Z,4.61
2024-02-03T03:49:26.008Z,3.76
2024-02-03T03:50:25.965Z,4.71
2024-02-03T03:51:26.053Z,4.32
2024-02-03T03:52:26.086Z,4.18
2024-02-03T03:53:26.056Z,4.56
2024-02-03T03:54:26.105Z,4.53
2024-02-03T03:55:26.148Z,4.61
2024-02-03T03:56:26.178Z,4.93
2024-02-03T03:57:26.304Z,4.68
2024-02-03T03:58:26.293Z,4.04
2024-02-03T03:59:26.356Z,5.08
2024-02-03T04:00:26.482Z,5.10
2024-02-03T04:01:26.473Z,4.85
2024-02-03T04:02:26.557Z,5.21
2024-02-03T04:03:26.583Z,5.41
2024-02-03T04:04:26.667Z,4.46
2024-02-03T04:05:26.705Z,5.10
2024-02-03T04:06:26.751Z,5.01
2024-02-03T04:07:26.747Z,4.99
2024-02-03T04:08:26.772Z,3.76
2024-02-03T04:09:36.933Z,4.59
2024-02-03T04:10:26.837Z,4.32
2024-02-03T04:11:26.833Z,4.70
2024-02-03T04:12:26.850Z,4.09
2024-02-03T04:13:26.872Z,4.59
2024-02-03T04:14:26.848Z,3.79
2024-02-03T04:15:26.867Z,3.78
2024-02-03T04:16:26.842Z,4.20
2024-02-03T04:17:26.843Z,3.72
2024-02-03T04:18:27.346Z,4.43
2024-02-03T04:19:26.991Z,3.85
2024-02-03T04:20:26.881Z,3.30
2024-02-03T04:21:26.863Z,4.10
2024-02-03T04:22:26.900Z,7.18
2024-02-03T04:23:26.866Z,9.96
2024-02-03T04:24:31.978Z,10.23
2024-02-03T04:25:26.892Z,9.39
2024-02-03T04:26:26.982Z,10.74
2024-02-03T04:27:26.881Z,10.13
2024-02-03T04:28:26.865Z,8.99
2024-02-03T04:29:26.896Z,9.97
2024-02-03T04:30:26.932Z,8.54
2024-02-03T04:31:26.934Z,7.73
2024-02-03T04:32:27.080Z,10.12
2024-02-03T04:33:27.130Z,12.51
2024-02-03T04:34:27.848Z,10.79
2024-02-03T04:35:27.091Z,11.35
2024-02-03T04:36:27.167Z,10.73
2024-02-03T04:37:27.249Z,11.73
2024-02-03T04:38:27.265Z,12.32
2024-02-03T04:39:27.348Z,12.46
2024-02-03T04:40:27.358Z,11.41
2024-02-03T04:41:27.380Z,11.56
2024-02-03T04:42:27.402Z,8.82
2024-02-03T04:43:27.434Z,9.29
2024-02-03T04:44:27.532Z,7.39
2024-02-03T04:45:27.573Z,7.76
2024-02-03T04:46:27.715Z,9.07
2024-02-03T04:47:27.578Z,8.86
2024-02-03T04:48:27.815Z,9.72
2024-02-03T04:49:27.812Z,8.06
2024-02-03T04:50:27.816Z,6.45
2024-02-03T04:51:35.224Z,7.65
2024-02-03T04:52:35.168Z,7.34
2024-02-03T04:53:35.267Z,6.96
2024-02-03T04:54:35.358Z,9.34
2024-02-03T04:55:35.324Z,10.00
2024-02-03T04:56:35.356Z,10.12
2024-02-03T04:57:35.541Z,9.85
2024-02-03T04:58:35.504Z,10.76
2024-02-03T04:59:35.611Z,10.00
2024-02-03T05:00:35.641Z,10.50
2024-02-03T05:01:35.692Z,12.33
2024-02-03T05:02:35.687Z,13.41
2024-02-03T05:03:35.758Z,12.57
2024-02-03T05:04:35.975Z,13.77
2024-02-03T05:05:35.800Z,12.20
2024-02-03T05:06:35.918Z,11.41
2024-02-03T05:07:35.853Z,13.34
2024-02-03T05:08:35.903Z,15.50
2024-02-03T05:09:35.977Z,13.39
2024-02-03T05:10:35.962Z,16.15
2024-02-03T05:11:36.007Z,16.49
2024-02-03T05:12:36.178Z,15.20
2024-02-03T05:13:36.103Z,15.53
2024-02-03T05:14:41.177Z,15.90
2024-02-03T05:15:36.169Z,15.29
2024-02-03T05:16:36.157Z,15.95
2024-02-03T05:17:36.216Z,17.51
2024-02-03T05:18:36.285Z,17.52
2024-02-03T05:19:36.334Z,16.95
2024-02-03T05:20:36.161Z,14.59
2024-02-03T05:21:36.182Z,16.49
2024-02-03T05:22:36.191Z,15.29
2024-02-03T05:23:36.236Z,14.79
2024-02-03T05:24:36.310Z,13.04
2024-02-03T05:25:36.293Z,12.79
2024-02-03T05:26:36.345Z,12.04
2024-02-03T05:27:36.346Z,12.34
2024-02-03T05:28:36.441Z,12.07
2024-02-03T05:29:36.405Z,11.71
2024-02-03T05:30:36.479Z,13.25
2024-02-03T05:31:36.486Z,11.02
2024-02-03T05:32:36.555Z,10.43
2024-02-03T05:33:36.684Z,10.53
2024-02-03T05:34:36.721Z,10.74
2024-02-03T05:35:36.613Z,10.35
2024-02-03T05:36:36.683Z,11.54
2024-02-03T05:37:36.742Z,10.89
2024-02-03T05:38:36.780Z,11.42
2024-02-03T05:39:41.946Z,11.18
2024-02-03T05:40:36.797Z,11.60
2024-02-03T05:41:36.847Z,12.83
2024-02-03T05:42:36.843Z,12.14
2024-02-03T05:43:36.814Z,12.22
2024-02-03T05:44:36.837Z,11.91
2024-02-03T05:45:36.834Z,11.74
2024-02-03T05:46:36.837Z,11.90
2024-02-03T05:47:36.924Z,14.54
2024-02-03T05:48:37.057Z,12.22
2024-02-03T05:49:37.046Z,11.58
2024-02-03T05:50:37.066Z,12.61
2024-02-03T05:51:37.119Z,11.61
2024-02-03T05:52:37.196Z,12.91
2024-02-03T05:53:37.212Z,13.15
2024-02-03T05:54:37.380Z,14.63
2024-02-03T05:55:37.307Z,12.72
2024-02-03T05:56:37.317Z,13.37
2024-02-03T05:57:37.393Z,13.59
2024-02-03T05:58:37.456Z,14.24
2024-02-03T05:59:41.705Z,14.19
2024-02-03T06:00:40.427Z,13.74
2024-02-03T06:01:37.510Z,13.69
2024-02-03T06:02:37.435Z,14.85
2024-02-03T06:03:37.590Z,16.15
2024-02-03T06:04:47.607Z,20.48
2024-02-03T06:05:48.637Z,19.77
2024-02-03T06:06:38.571Z,20.93
2024-02-03T06:07:37.607Z,21.86
2024-02-03T06:08:37.470Z,22.01
2024-02-03T06:09:37.454Z,22.10
2024-02-03T06:10:37.546Z,21.22
2024-02-03T06:11:37.494Z,22.98
2024-02-03T06:12:37.491Z,18.15
2024-02-03T06:13:37.486Z,20.03
2024-02-03T06:14:37.502Z,19.92
2024-02-03T06:15:37.474Z,18.06
2024-02-03T06:16:37.500Z,17.12
2024-02-03T06:17:37.526Z,18.88
2024-02-03T06:18:37.609Z,16.89
2024-02-03T06:19:40.204Z,13.51
2024-02-03T06:20:38.483Z,15.19
2024-02-03T06:21:37.530Z,14.50
2024-02-03T06:22:37.523Z,13.57
2024-02-03T06:23:37.521Z,12.76
2024-02-03T06:24:37.620Z,11.74
2024-02-03T06:25:37.992Z,15.07
2024-02-03T06:26:37.467Z,14.51
2024-02-03T06:27:37.508Z,15.22
2024-02-03T06:28:37.481Z,15.64
2024-02-03T06:29:37.494Z,15.81
2024-02-03T06:30:37.516Z,15.75
2024-02-03T06:31:37.482Z,16.89
2024-02-03T06:32:37.543Z,14.78
2024-02-03T06:33:37.661Z,13.96
2024-02-03T06:34:42.572Z,13.44
2024-02-03T06:35:40.420Z,10.03
2024-02-03T06:36:37.598Z,9.65
2024-02-03T06:37:37.538Z,9.45
2024-02-03T06:38:37.582Z,9.97
2024-02-03T06:39:42.632Z,11.13
2024-02-03T06:40:37.563Z,13.33
2024-02-03T06:41:37.543Z,10.72
2024-02-03T06:42:37.652Z,10.98
2024-02-03T06:43:37.551Z,10.65
2024-02-03T06:44:37.534Z,11.04
2024-02-03T06:45:37.602Z,11.78
2024-02-03T06:46:37.542Z,12.16
2024-02-03T06:47:37.626Z,9.77
2024-02-03T06:48:37.687Z,9.01
2024-02-03T06:49:37.881Z,9.32
2024-02-03T06:50:37.709Z,9.94
2024-02-03T06:51:37.826Z,10.67
2024-02-03T06:52:37.795Z,15.47
2024-02-03T06:53:37.859Z,21.69
2024-02-03T06:54:37.960Z,21.96
2024-02-03T06:55:37.960Z,19.45
2024-02-03T06:56:38.012Z,16.23
2024-02-03T06:57:38.104Z,15.54
2024-02-03T06:58:38.078Z,18.37
2024-02-03T06:59:38.102Z,16.33
2024-02-03T07:00:38.188Z,16.82
2024-02-03T07:01:38.188Z,16.07
2024-02-03T07:02:38.233Z,14.52
2024-02-03T07:03:38.358Z,16.65
2024-02-03T07:04:38.308Z,15.56
2024-02-03T07:05:38.342Z,14.76
2024-02-03T07:06:38.468Z,13.97
2024-02-03T07:07:38.514Z,11.75
2024-02-03T07:08:38.469Z,12.09
2024-02-03T07:09:38.674Z,11.45
2024-02-03T07:10:38.576Z,9.28
2024-02-03T07:11:39.825Z,10.89
2024-02-03T07:12:38.650Z,12.99
2024-02-03T07:13:38.603Z,13.11
2024-02-03T07:14:38.598Z,11.97
2024-02-03T07:15:38.639Z,13.47
2024-02-03T07:16:38.633Z,12.41
2024-02-03T07:17:38.666Z,13.15
2024-02-03T07:18:38.753Z,11.94
2024-02-03T07:19:38.883Z,12.78
2024-02-03T07:20:38.622Z,11.86
2024-02-03T07:21:38.730Z,13.59
2024-02-03T07:22:38.617Z,12.81
2024-02-03T07:23:38.648Z,13.50
2024-02-03T07:24:43.773Z,12.87
2024-02-03T07:25:38.639Z,12.36
2024-02-03T07:26:38.672Z,12.05
2024-02-03T07:27:38.719Z,12.19
2024-02-03T07:28:38.666Z,11.09
2024-02-03T07:29:38.663Z,11.12
2024-02-03T07:30:38.707Z,10.41
2024-02-03T07:31:38.678Z,10.54
2024-02-03T07:32:38.710Z,11.08
2024-02-03T07:33:38.763Z,12.94
2024-02-03T07:34:38.861Z,11.45
2024-02-03T07:35:38.843Z,11.31
2024-02-03T07:36:38.845Z,11.16
2024-02-03T07:37:38.821Z,12.78
2024-02-03T07:38:38.827Z,12.73
2024-02-03T07:39:39.011Z,13.83
2024-02-03T07:40:38.948Z,12.84
2024-02-03T07:41:38.985Z,14.25
2024-02-03T07:42:39.057Z,14.70
2024-02-03T07:43:39.015Z,15.08
2024-02-03T07:44:39.040Z,13.87
2024-02-03T07:45:39.071Z,12.47
2024-02-03T07:46:39.093Z,12.66
2024-02-03T07:47:39.101Z,13.03
2024-02-03T07:48:39.317Z,15.01
2024-02-03T07:49:39.275Z,18.53
2024-02-03T07:50:39.229Z,18.98
2024-02-03T07:51:39.320Z,18.42
2024-02-03T07:52:39.298Z,19.58
2024-02-03T07:53:39.325Z,19.96
2024-02-03T07:54:39.427Z,18.00
2024-02-03T07:55:39.367Z,18.76
2024-02-03T07:56:39.392Z,20.99
2024-02-03T07:57:39.473Z,18.11
2024-02-03T07:58:39.500Z,17.61
2024-02-03T07:59:39.541Z,16.21
2024-02-03T08:00:39.637Z,18.23
2024-02-03T08:01:39.620Z,18.20
2024-02-03T08:02:39.584Z,16.44
2024-02-03T08:03:44.732Z,14.85
2024-02-03T08:04:39.684Z,12.19
2024-02-03T08:05:39.670Z,14.06
2024-02-03T08:06:39.715Z,16.17
2024-02-03T08:07:39.645Z,16.61
2024-02-03T08:08:39.598Z,14.67
2024-02-03T08:09:39.647Z,15.18
2024-02-03T08:10:39.616Z,14.58
2024-02-03T08:11:39.612Z,14.99
2024-02-03T08:12:39.627Z,13.19
2024-02-03T08:13:39.624Z,12.76
2024-02-03T08:14:39.629Z,13.97
2024-02-03T08:15:39.683Z,13.38
2024-02-03T08:16:39.682Z,13.67
2024-02-03T08:17:39.755Z,13.04
2024-02-03T08:18:39.843Z,11.87
2024-02-03T08:19:39.870Z,12.20
2024-02-03T08:20:39.846Z,13.68
2024-02-03T08:21:39.968Z,13.42
2024-02-03T08:22:39.967Z,13.01
2024-02-03T08:23:40.014Z,14.97
2024-02-03T08:24:40.159Z,12.77
2024-02-03T08:25:40.110Z,12.85
2024-02-03T08:26:42.660Z,11.95
2024-02-03T08:27:40.161Z,12.10
2024-02-03T08:28:40.095Z,10.89
2024-02-03T08:29:40.193Z,12.40
2024-02-03T08:30:40.174Z,12.17
2024-02-03T08:31:40.136Z,12.27
2024-02-03T08:32:40.208Z,12.28
2024-02-03T08:33:40.221Z,12.64
2024-02-03T08:35:17.903Z,12.69
2024-02-03T08:35:41.342Z,11.57
2024-02-03T08:36:40.168Z,12.99
2024-02-03T08:37:40.129Z,13.11
2024-02-03T08:38:40.173Z,13.74
2024-02-03T08:40:40.162Z,14.50
2024-02-03T08:41:40.182Z,13.61
2024-02-03T08:42:40.219Z,13.16
2024-02-03T08:43:40.164Z,13.26
2024-02-03T08:44:40.141Z,14.24
2024-02-03T08:45:40.241Z,12.95
2024-02-03T08:46:40.195Z,11.54
2024-02-03T08:47:40.223Z,11.41
2024-02-03T08:48:40.241Z,10.63
2024-02-03T08:49:40.257Z,9.98
2024-02-03T08:50:40.190Z,11.36
2024-02-03T08:51:42.235Z,11.55
2024-02-03T08:52:40.155Z,11.38
2024-02-03T08:53:40.173Z,11.82
2024-02-03T08:54:40.281Z,13.43
2024-02-03T08:55:40.319Z,12.30
2024-02-03T08:56:40.314Z,11.02
2024-02-03T08:57:40.441Z,9.87
2024-02-03T08:58:40.505Z,11.58
2024-02-03T08:59:40.472Z,11.50
2024-02-03T09:00:40.750Z,11.18
2024-02-03T09:01:40.749Z,10.86
2024-02-03T09:02:40.680Z,11.13
2024-02-03T09:03:41.432Z,10.55
2024-02-03T09:04:40.823Z,10.41
2024-02-03T09:05:40.871Z,9.89
2024-02-03T09:06:40.830Z,10.05
2024-02-03T09:07:40.889Z,11.84
2024-02-03T09:08:40.952Z,14.44
2024-02-03T09:09:41.016Z,13.66
2024-02-03T09:10:40.976Z,13.62
2024-02-03T09:11:41.013Z,13.18
2024-02-03T09:12:41.008Z,12.35
2024-02-03T09:13:41.052Z,13.02
2024-02-03T09:14:41.073Z,12.30
2024-02-03T09:15:41.138Z,12.94
2024-02-03T09:16:41.146Z,11.27
2024-02-03T09:17:41.253Z,11.50
2024-02-03T09:18:41.407Z,11.49
2024-02-03T09:19:41.606Z,10.99
2024-02-03T09:20:41.393Z,9.93
2024-02-03T09:21:41.510Z,11.63
2024-02-03T09:22:41.553Z,11.73
2024-02-03T09:23:41.597Z,9.80
2024-02-03T09:24:41.602Z,9.95
2024-02-03T09:25:42.157Z,10.60
2024-02-03T09:26:41.623Z,9.86
2024-02-03T09:27:41.835Z,11.18
2024-02-03T09:28:41.687Z,9.98
2024-02-03T09:29:41.720Z,9.77
2024-02-03T09:30:41.787Z,8.67
2024-02-03T09:31:41.838Z,9.21
2024-02-03T09:32:41.927Z,10.20
2024-02-03T09:33:42.118Z,10.82
2024-02-03T09:34:41.996Z,12.17
2024-02-03T09:35:42.004Z,11.57
2024-02-03T09:38:42.145Z,13.09
2024-02-03T09:39:42.186Z,12.30
2024-02-03T09:40:42.088Z,13.00
2024-02-03T09:41:42.094Z,14.62
2024-02-03T09:42:42.092Z,14.81
2024-02-03T09:43:42.167Z,16.09
2024-02-03T09:44:42.064Z,17.82
2024-02-03T09:45:42.176Z,18.32
2024-02-03T09:46:42.112Z,19.85
2024-02-03T09:47:42.100Z,20.39
2024-02-03T09:48:42.187Z,19.01
2024-02-03T09:49:42.205Z,17.75
2024-02-03T09:50:42.062Z,17.18
2024-02-03T09:51:42.110Z,17.35
2024-02-03T09:52:42.145Z,15.36
2024-02-03T09:53:42.085Z,15.06
2024-02-03T09:54:42.101Z,13.16
2024-02-03T09:55:42.101Z,13.77
2024-02-03T09:56:42.071Z,12.52
2024-02-03T09:57:42.112Z,11.07
2024-02-03T09:58:43.012Z,12.61
2024-02-03T09:59:42.109Z,11.65
2024-02-03T10:00:42.167Z,10.61
2024-02-03T10:01:42.126Z,10.04
2024-02-03T10:02:42.088Z,10.40
2024-02-03T10:03:42.133Z,9.23
2024-02-03T10:04:42.340Z,9.86
2024-02-03T10:05:42.100Z,9.65
2024-02-03T10:06:42.158Z,7.82
2024-02-03T10:07:42.125Z,8.67
2024-02-03T10:08:42.087Z,10.53
2024-02-03T10:11:42.223Z,10.28
2024-02-03T10:12:42.164Z,9.45
2024-02-03T10:13:42.144Z,7.88
2024-02-03T10:14:42.265Z,6.92
2024-02-03T10:15:42.211Z,8.58
2024-02-03T10:16:42.106Z,8.87
2024-02-03T10:17:42.230Z,8.07
2024-02-03T10:18:42.301Z,8.64
2024-02-03T10:19:42.289Z,7.75
2024-02-03T10:20:42.134Z,9.06
2024-02-03T10:21:42.196Z,8.88
2024-02-03T10:22:42.149Z,7.06
2024-02-03T10:23:42.136Z,5.85
2024-02-03T10:24:42.197Z,5.84
2024-02-03T10:25:42.153Z,5.99
2024-02-03T10:26:42.152Z,6.29
2024-02-03T10:27:42.184Z,6.61
2024-02-03T10:28:42.153Z,8.11
2024-02-03T10:29:42.173Z,7.40
2024-02-03T10:30:42.172Z,8.02
2024-02-03T10:31:42.159Z,8.07
2024-02-03T10:32:42.199Z,7.67
2024-02-03T10:33:42.223Z,6.51
2024-02-03T10:34:42.238Z,6.35
2024-02-03T10:35:42.158Z,6.22
2024-02-03T10:36:46.442Z,5.96
2024-02-03T10:37:43.249Z,4.70
2024-02-03T10:38:42.163Z,4.99
2024-02-03T10:39:42.205Z,4.98
2024-02-03T10:40:42.185Z,3.66
2024-02-03T10:41:42.174Z,3.32
2024-02-03T10:42:42.201Z,2.93
2024-02-03T10:43:42.158Z,2.76
2024-02-03T10:44:42.166Z,2.40
2024-02-03T10:45:42.226Z,2.12
2024-02-03T10:46:42.190Z,2.59
2024-02-03T10:47:42.196Z,2.72
2024-02-03T10:48:42.308Z,2.53
2024-02-03T10:49:42.265Z,3.33
2024-02-03T10:50:42.330Z,3.26
2024-02-03T10:51:42.261Z,3.55
2024-02-03T10:52:42.262Z,3.39
2024-02-03T10:53:42.304Z,4.31
2024-02-03T10:54:42.375Z,4.40
2024-02-03T10:55:47.384Z,4.34
2024-02-03T10:56:42.381Z,4.37
2024-02-03T10:57:42.411Z,4.08
2024-02-03T10:58:42.365Z,3.78
2024-02-03T10:59:42.367Z,4.78
2024-02-03T11:00:42.457Z,5.26
2024-02-03T11:01:42.454Z,5.44
2024-02-03T11:02:42.393Z,6.46
2024-02-03T11:03:42.460Z,6.79
2024-02-03T11:04:42.423Z,6.93
2024-02-03T11:05:42.402Z,6.48
2024-02-03T11:06:42.405Z,6.79
2024-02-03T11:07:42.378Z,4.27
2024-02-03T11:08:42.392Z,3.39
2024-02-03T11:09:42.445Z,3.23
2024-02-03T11:10:42.449Z,2.95
2024-02-03T11:11:42.478Z,2.28
2024-02-03T11:12:42.519Z,1.69
2024-02-03T11:13:42.569Z,2.17
2024-02-03T11:14:42.639Z,1.78
2024-02-03T11:15:42.705Z,1.72
2024-02-03T11:16:42.734Z,1.63
2024-02-03T11:17:42.805Z,1.74
2024-02-03T11:18:43.047Z,2.07
2024-02-03T11:19:42.985Z,1.81
2024-02-03T11:20:42.878Z,2.22
2024-02-03T11:21:42.943Z,2.08
2024-02-03T11:22:42.980Z,2.08
2024-02-03T11:23:43.029Z,2.55
2024-02-03T11:24:43.162Z,2.61
2024-02-03T11:25:43.140Z,2.74
2024-02-03T11:26:43.193Z,2.01
2024-02-03T11:27:43.253Z,2.15
2024-02-03T11:28:43.294Z,2.00
2024-02-03T11:29:43.323Z,2.20
2024-02-03T11:30:43.520Z,2.48
2024-02-03T11:31:43.504Z,2.15
2024-02-03T11:32:43.613Z,2.88
2024-02-03T11:33:43.681Z,2.57
2024-02-03T11:34:43.631Z,2.91
2024-02-03T11:35:43.583Z,2.71
2024-02-03T11:36:43.631Z,3.00
2024-02-03T11:37:43.625Z,2.68
2024-02-03T11:38:43.674Z,2.56
2024-02-03T11:39:43.737Z,2.13
2024-02-03T11:40:43.692Z,2.92
2024-02-03T11:41:43.686Z,2.61
2024-02-03T11:42:43.795Z,2.08
2024-02-03T11:43:43.748Z,2.47
2024-02-03T11:44:43.764Z,2.41
2024-02-03T11:45:43.866Z,2.96
2024-02-03T11:46:43.908Z,2.39
2024-02-03T11:47:43.901Z,2.53
2024-02-03T11:48:43.963Z,2.19
2024-02-03T11:49:43.984Z,2.26
2024-02-03T11:50:43.894Z,1.95
2024-02-03T11:51:43.984Z,2.22
2024-02-03T11:52:43.960Z,2.34
2024-02-03T11:53:43.976Z,2.02
2024-02-03T11:54:44.100Z,2.09
2024-02-03T11:55:44.021Z,2.15
2024-02-03T11:56:44.071Z,2.20
2024-02-03T11:57:44.132Z,2.70
2024-02-03T11:58:44.116Z,2.41
2024-02-03T11:59:44.095Z,2.83
2024-02-03T12:00:44.192Z,2.84
2024-02-03T12:01:44.156Z,3.06
2024-02-03T12:02:44.145Z,2.52
2024-02-03T12:03:44.267Z,2.31
2024-02-03T12:04:44.221Z,2.17
2024-02-03T12:05:44.208Z,3.94
2024-02-03T12:06:44.277Z,4.03
2024-02-03T12:07:44.349Z,3.48
2024-02-03T12:08:44.317Z,3.69
2024-02-03T12:09:44.429Z,3.90
2024-02-03T12:10:44.418Z,4.44
2024-02-03T12:11:44.476Z,3.81
2024-02-03T12:12:44.601Z,4.69
2024-02-03T12:13:44.581Z,5.06
2024-02-03T12:14:44.662Z,4.95
2024-02-03T12:15:44.754Z,3.19
2024-02-03T12:16:44.748Z,4.36
2024-02-03T12:17:44.900Z,4.30
2024-02-03T12:18:44.983Z,3.87
2024-02-03T12:19:44.923Z,4.43
2024-02-03T12:20:44.909Z,4.20
2024-02-03T12:21:44.990Z,4.38
2024-02-03T12:22:44.993Z,4.02
2024-02-03T12:23:45.087Z,3.50
2024-02-03T12:24:45.078Z,2.78
2024-02-03T12:25:45.141Z,3.57
2024-02-03T12:26:45.192Z,3.78
2024-02-03T12:27:45.337Z,3.89
2024-02-03T12:28:45.389Z,3.54
2024-02-03T12:29:45.345Z,4.12
2024-02-03T12:30:45.430Z,3.40
2024-02-03T12:31:45.396Z,3.60
2024-02-03T12:32:45.472Z,2.93
2024-02-03T12:33:45.598Z,2.68
2024-02-03T12:34:45.763Z,2.80
2024-02-03T12:35:45.567Z,3.22
2024-02-03T12:36:45.655Z,3.61
2024-02-03T12:37:45.626Z,3.72
2024-02-03T12:38:45.642Z,3.37
2024-02-03T12:39:45.799Z,3.31
2024-02-03T12:40:45.697Z,2.29
2024-02-03T12:41:45.694Z,2.25
2024-02-03T12:42:45.801Z,2.61
2024-02-03T12:43:45.745Z,3.08
2024-02-03T12:44:45.759Z,2.97
2024-02-03T12:45:45.832Z,2.41
2024-02-03T12:46:45.868Z,2.36
2024-02-03T12:47:45.920Z,2.56
2024-02-03T12:48:46.156Z,2.61
2024-02-03T12:49:46.130Z,2.95
2024-02-03T12:50:46.032Z,2.81
2024-02-03T12:51:46.127Z,2.94
2024-02-03T12:52:46.293Z,2.88
2024-02-03T12:53:46.133Z,2.60
2024-02-03T12:54:46.231Z,3.02
2024-02-03T12:55:46.269Z,3.83
2024-02-03T12:56:46.380Z,3.44
2024-02-03T12:57:46.471Z,3.09
2024-02-03T12:58:46.494Z,3.07
2024-02-03T12:59:46.547Z,2.01
2024-02-03T13:00:46.700Z,1.97
2024-02-03T13:01:46.731Z,2.10
2024-02-03T13:02:46.666Z,1.98
2024-02-03T13:03:46.733Z,1.83
2024-02-03T13:04:46.683Z,1.89
2024-02-03T13:05:46.739Z,1.94
2024-02-03T13:06:46.781Z,1.84
2024-02-03T13:07:46.837Z,2.03
2024-02-03T13:08:46.794Z,1.48
2024-02-03T13:09:46.847Z,1.66